createdAt,value
2023-03-06T00:01:01.564Z,25.92
2023-03-06T00:03:05.132Z,26.73
2023-03-06T00:05:08.898Z,22.95
2023-03-06T00:07:13.327Z,18.52
2023-03-06T00:09:16.444Z,20.13
2023-03-06T00:11:19.517Z,19.00
2023-03-06T00:13:22.894Z,21.02
2023-03-06T00:15:27.254Z,19.38
2023-03-06T00:17:30.448Z,18.90
2023-03-06T00:19:33.764Z,18.02
2023-03-06T00:21:36.941Z,18.90
2023-03-06T00:23:41.980Z,18.63
2023-03-06T00:25:45.882Z,21.75
2023-03-06T00:27:49.195Z,20.98
2023-03-06T00:29:56.146Z,20.35
2023-03-06T00:31:59.386Z,18.80
2023-03-06T00:34:03.013Z,17.00
2023-03-06T00:36:06.739Z,17.50
2023-03-06T00:38:12.733Z,14.95
2023-03-06T00:40:19.084Z,17.55
2023-03-06T00:42:22.167Z,17.05
2023-03-06T00:44:26.099Z,17.27
2023-03-06T00:46:29.170Z,17.02
2023-03-06T00:48:32.507Z,17.35
2023-03-06T00:50:36.276Z,18.02
2023-03-06T00:52:39.612Z,18.27
2023-03-06T00:54:44.084Z,18.65
2023-03-06T00:56:48.698Z,17.63
2023-03-06T00:58:52.010Z,17.02
2023-03-06T01:00:55.213Z,16.45
2023-03-06T01:02:59.094Z,16.98
2023-03-06T01:05:02.217Z,16.45
2023-03-06T01:07:05.381Z,15.80
2023-03-06T01:09:08.500Z,15.90
2023-03-06T01:11:11.539Z,16.45
2023-03-06T01:13:15.982Z,14.45
2023-03-06T01:15:19.101Z,15.35
2023-03-06T01:17:22.332Z,16.17
2023-03-06T01:19:25.380Z,16.80
2023-03-06T01:21:28.684Z,16.70
2023-03-06T01:23:32.047Z,16.23
2023-03-06T01:25:35.217Z,16.58
2023-03-06T01:27:38.415Z,15.80
2023-03-06T01:29:42.914Z,14.90
2023-03-06T01:31:46.876Z,16.50
2023-03-06T01:33:50.092Z,14.25
2023-03-06T01:35:53.207Z,16.35
2023-03-06T01:37:56.569Z,16.23
2023-03-06T01:39:59.713Z,15.52
2023-03-06T01:42:02.778Z,16.02
2023-03-06T01:44:06.049Z,14.13
2023-03-06T01:46:27.693Z,16.55
2023-03-06T01:48:30.946Z,17.38
2023-03-06T01:50:34.684Z,15.48
2023-03-06T01:52:40.873Z,16.38
2023-03-06T01:54:46.562Z,15.27
2023-03-06T01:56:54.086Z,15.73
2023-03-06T01:58:57.778Z,14.73
2023-03-06T02:01:00.968Z,15.88
2023-03-06T02:03:08.861Z,15.30
2023-03-06T02:05:14.320Z,15.52
2023-03-06T02:07:19.968Z,17.23
2023-03-06T02:09:23.071Z,17.10
2023-03-06T02:11:30.412Z,15.57
2023-03-06T02:13:33.748Z,16.40
2023-03-06T02:15:36.885Z,16.33
2023-03-06T02:17:40.137Z,15.82
2023-03-06T02:19:52.584Z,15.63
2023-03-06T02:21:56.338Z,16.48
2023-03-06T02:24:12.735Z,15.63
2023-03-06T02:26:17.832Z,15.48
2023-03-06T02:28:23.314Z,17.13
2023-03-06T02:30:28.176Z,15.65
2023-03-06T02:32:31.352Z,16.17
2023-03-06T02:34:54.143Z,16.15
2023-03-06T02:36:59.525Z,15.82
2023-03-06T02:39:03.068Z,15.60
2023-03-06T02:41:08.900Z,15.35
2023-03-06T02:43:13.964Z,15.52
2023-03-06T02:45:20.498Z,15.60
2023-03-06T02:47:23.575Z,16.23
2023-03-06T02:49:26.822Z,15.98
2023-03-06T02:51:29.938Z,16.05
2023-03-06T02:53:32.968Z,15.68
2023-03-06T02:55:36.768Z,15.45
2023-03-06T02:57:40.061Z,15.18
2023-03-06T02:59:44.724Z,15.40
2023-03-06T03:01:48.292Z,14.73
2023-03-06T03:03:51.389Z,14.30
2023-03-06T03:05:56.599Z,14.23
2023-03-06T03:08:04.210Z,14.35
2023-03-06T03:10:08.261Z,13.70
2023-03-06T03:12:11.852Z,13.90
2023-03-06T03:14:16.697Z,16.02
2023-03-06T03:16:23.716Z,14.90
2023-03-06T03:18:27.130Z,14.60
2023-03-06T03:20:30.217Z,15.02
2023-03-06T03:22:33.428Z,14.38
2023-03-06T03:24:36.640Z,15.32
2023-03-06T03:26:40.480Z,14.02
2023-03-06T03:28:48.449Z,15.40
2023-03-06T03:30:54.072Z,14.35
2023-03-06T03:32:58.493Z,15.10
2023-03-06T03:35:01.953Z,14.85
2023-03-06T03:37:06.366Z,14.50
2023-03-06T03:39:10.203Z,13.75
2023-03-06T03:41:13.913Z,14.82
2023-03-06T03:43:18.294Z,17.20
2023-03-06T03:45:22.206Z,14.90
2023-03-06T03:47:25.584Z,14.65
2023-03-06T03:49:30.154Z,15.60
2023-03-06T03:51:33.757Z,15.27
2023-03-06T03:53:37.428Z,14.80
2023-03-06T03:55:41.089Z,16.10
2023-03-06T03:57:44.405Z,14.80
2023-03-06T03:59:48.537Z,15.20
2023-03-06T04:02:25.455Z,14.45
2023-03-06T04:04:50.505Z,13.95
2023-03-06T04:06:53.814Z,14.07
2023-03-06T04:08:57.105Z,15.20
2023-03-06T04:11:00.874Z,14.00
2023-03-06T04:13:05.054Z,15.85
2023-03-06T04:15:09.866Z,15.25
2023-03-06T04:17:13.798Z,15.75
2023-03-06T04:19:16.930Z,16.27
2023-03-06T04:21:21.433Z,17.75
2023-03-06T04:23:25.294Z,16.15
2023-03-06T04:25:28.624Z,15.55
2023-03-06T04:27:32.077Z,15.77
2023-03-06T04:29:35.328Z,14.90
2023-03-06T04:31:38.742Z,16.23
2023-03-06T04:33:42.148Z,14.60
2023-03-06T04:35:45.833Z,14.10
2023-03-06T04:37:56.010Z,14.48
2023-03-06T04:40:00.768Z,14.18
2023-03-06T04:42:04.109Z,15.20
2023-03-06T04:44:07.187Z,13.65
2023-03-06T04:46:10.502Z,17.60
2023-03-06T04:48:15.109Z,16.15
2023-03-06T04:50:19.174Z,16.88
2023-03-06T04:52:22.315Z,15.05
2023-03-06T04:54:27.062Z,14.48
2023-03-06T04:56:30.594Z,14.77
2023-03-06T04:58:33.671Z,15.75
2023-03-06T05:00:36.802Z,14.60
2023-03-06T05:02:39.902Z,15.65
2023-03-06T05:04:43.018Z,14.93
2023-03-06T05:06:46.148Z,15.15
2023-03-06T05:08:49.395Z,30.35
2023-03-06T05:10:57.937Z,32.65
2023-03-06T05:13:01.046Z,46.88
2023-03-06T05:15:04.808Z,36.20
2023-03-06T05:17:08.065Z,27.67
2023-03-06T05:19:11.152Z,20.48
2023-03-06T05:21:14.349Z,27.95
2023-03-06T05:23:17.499Z,17.55
2023-03-06T05:25:20.749Z,16.42
2023-03-06T05:27:25.252Z,21.05
2023-03-06T05:29:28.495Z,20.08
2023-03-06T05:31:31.803Z,21.42
2023-03-06T05:33:35.568Z,21.42
2023-03-06T05:35:38.988Z,18.65
2023-03-06T05:37:42.246Z,18.55
2023-03-06T05:39:45.659Z,17.80
2023-03-06T05:41:49.026Z,17.70
2023-03-06T05:43:55.180Z,16.90
2023-03-06T05:46:05.799Z,17.30
2023-03-06T05:48:09.370Z,17.60
2023-03-06T05:50:13.987Z,18.95
2023-03-06T05:52:17.567Z,19.30
2023-03-06T05:54:21.344Z,18.95
2023-03-06T05:56:24.658Z,16.25
2023-03-06T05:58:27.961Z,17.52
2023-03-06T06:00:32.577Z,15.63
2023-03-06T06:02:35.787Z,17.27
2023-03-06T06:04:39.165Z,16.30
2023-03-06T06:06:42.341Z,18.63
2023-03-06T06:08:45.810Z,17.08
2023-03-06T06:10:53.232Z,18.35
2023-03-06T06:12:56.463Z,18.40
2023-03-06T06:14:59.676Z,16.42
2023-03-06T06:17:07.994Z,17.02
2023-03-06T06:19:15.507Z,16.17
2023-03-06T06:21:18.833Z,17.25
2023-03-06T06:23:21.893Z,16.55
2023-03-06T06:25:24.999Z,17.33
2023-03-06T06:27:28.170Z,16.50
2023-03-06T06:29:31.735Z,16.90
2023-03-06T06:31:36.715Z,17.90
2023-03-06T06:33:41.906Z,18.40
2023-03-06T06:35:45.132Z,17.60
2023-03-06T06:37:48.409Z,17.48
2023-03-06T06:39:51.571Z,21.35
2023-03-06T06:42:15.240Z,18.83
2023-03-06T06:44:17.883Z,18.83
2023-03-06T06:47:02.652Z,14.93
2023-03-06T06:48:46.154Z,16.70
2023-03-06T06:50:56.683Z,18.17
2023-03-06T06:52:59.722Z,17.48
2023-03-06T06:55:03.093Z,16.42
2023-03-06T06:57:06.432Z,17.40
2023-03-06T06:59:16.451Z,17.13
2023-03-06T07:01:22.724Z,16.40
2023-03-06T07:03:26.356Z,17.90
2023-03-06T07:05:30.850Z,17.33
2023-03-06T07:07:36.120Z,15.13
2023-03-06T07:09:40.243Z,17.38
2023-03-06T07:11:43.506Z,17.10
2023-03-06T07:13:46.933Z,18.38
2023-03-06T07:15:50.085Z,16.90
2023-03-06T07:17:53.429Z,17.70
2023-03-06T07:19:56.719Z,15.10
2023-03-06T07:22:01.552Z,14.65
2023-03-06T07:24:05.056Z,14.95
2023-03-06T07:26:08.735Z,16.40
2023-03-06T07:28:11.865Z,15.23
2023-03-06T07:30:15.616Z,15.07
2023-03-06T07:32:19.234Z,14.85
2023-03-06T07:34:22.503Z,15.65
2023-03-06T07:36:28.014Z,15.13
2023-03-06T07:38:32.504Z,14.70
2023-03-06T07:40:38.900Z,15.18
2023-03-06T07:42:42.038Z,15.50
2023-03-06T07:44:48.653Z,15.05
2023-03-06T07:46:52.357Z,16.17
2023-03-06T07:48:55.524Z,15.77
2023-03-06T07:50:59.865Z,15.05
2023-03-06T07:53:03.113Z,15.68
2023-03-06T07:55:09.666Z,16.13
2023-03-06T07:57:14.142Z,15.75
2023-03-06T07:59:17.466Z,19.55
2023-03-06T08:01:23.555Z,19.30
2023-03-06T08:03:26.861Z,29.25
2023-03-06T08:05:30.288Z,18.08
2023-03-06T08:07:35.629Z,16.95
2023-03-06T08:09:38.735Z,17.33
2023-03-06T08:11:45.332Z,20.63
2023-03-06T08:13:49.356Z,16.33
2023-03-06T08:15:52.556Z,16.05
2023-03-06T08:17:55.871Z,13.95
2023-03-06T08:19:59.112Z,15.50
2023-03-06T08:22:02.254Z,14.32
2023-03-06T08:24:06.773Z,16.73
2023-03-06T08:26:18.052Z,15.05
2023-03-06T08:28:22.561Z,15.52
2023-03-06T08:30:25.901Z,19.05
2023-03-06T08:32:29.312Z,18.48
2023-03-06T08:34:32.685Z,17.13
2023-03-06T08:36:36.047Z,14.32
2023-03-06T08:38:39.392Z,15.48
2023-03-06T08:40:42.539Z,15.55
2023-03-06T08:42:45.630Z,13.98
2023-03-06T08:44:50.597Z,11.98
2023-03-06T08:46:53.706Z,11.43
2023-03-06T08:48:56.990Z,10.80
2023-03-06T08:51:00.341Z,11.98
2023-03-06T08:53:03.578Z,11.20
2023-03-06T08:55:07.844Z,10.07
2023-03-06T08:57:11.070Z,10.85
2023-03-06T08:59:14.690Z,11.95
2023-03-06T09:01:20.777Z,12.32
2023-03-06T09:03:23.926Z,11.48
2023-03-06T09:05:27.232Z,11.40
2023-03-06T09:07:30.716Z,11.68
2023-03-06T09:09:34.278Z,11.80
2023-03-06T09:11:38.249Z,12.52
2023-03-06T09:13:41.431Z,11.68
2023-03-06T09:15:44.568Z,12.43
2023-03-06T09:17:50.875Z,13.35
2023-03-06T09:19:56.846Z,12.25
2023-03-06T09:22:01.112Z,12.65
2023-03-06T09:24:04.568Z,12.98
2023-03-06T09:26:08.343Z,13.18
2023-03-06T09:28:12.310Z,13.15
2023-03-06T09:30:16.076Z,13.20
2023-03-06T09:32:19.387Z,12.95
2023-03-06T09:34:24.195Z,12.82
2023-03-06T09:36:27.468Z,13.35
2023-03-06T09:38:30.599Z,12.25
2023-03-06T09:40:42.887Z,13.40
2023-03-06T09:42:46.033Z,12.30
2023-03-06T09:44:52.985Z,13.05
2023-03-06T09:47:08.368Z,12.55
2023-03-06T09:49:31.406Z,16.05
2023-03-06T09:51:41.827Z,13.43
2023-03-06T09:54:00.317Z,13.75
2023-03-06T09:56:06.440Z,12.82
2023-03-06T09:58:15.480Z,13.18
2023-03-06T10:00:21.561Z,13.07
2023-03-06T10:02:29.816Z,13.57
2023-03-06T10:04:37.702Z,12.43
2023-03-06T10:06:48.602Z,13.38
2023-03-06T10:08:54.560Z,13.77
2023-03-06T10:11:02.353Z,12.75
2023-03-06T10:13:13.661Z,11.88
2023-03-06T10:15:19.596Z,11.60
2023-03-06T10:17:23.995Z,12.75
2023-03-06T10:19:32.765Z,12.30
2023-03-06T10:21:46.756Z,11.18
2023-03-06T10:23:54.483Z,13.52
2023-03-06T10:26:01.705Z,11.52
2023-03-06T10:28:12.310Z,11.52
2023-03-06T10:30:28.441Z,10.70
2023-03-06T10:32:46.239Z,10.90
2023-03-06T10:34:51.397Z,10.00
2023-03-06T10:36:56.033Z,9.88
2023-03-06T10:38:59.855Z,11.95
2023-03-06T10:41:08.523Z,11.95
2023-03-06T10:43:12.551Z,11.20
2023-03-06T10:45:17.021Z,12.30
2023-03-06T10:47:30.481Z,12.60
2023-03-06T10:49:35.701Z,13.82
2023-03-06T10:51:38.959Z,13.18
2023-03-06T10:53:52.348Z,11.13
2023-03-06T10:55:58.297Z,10.98
2023-03-06T10:58:20.456Z,12.27
2023-03-06T11:00:30.031Z,10.80
2023-03-06T11:02:40.816Z,11.73
2023-03-06T11:04:48.141Z,11.90
2023-03-06T11:07:06.404Z,11.88
2023-03-06T11:09:22.885Z,11.60
2023-03-06T11:11:37.190Z,11.60
2023-03-06T11:13:42.760Z,11.95
2023-03-06T11:15:57.006Z,12.07
2023-03-06T11:18:03.685Z,11.25
2023-03-06T11:20:20.165Z,12.18
2023-03-06T11:22:23.201Z,11.48
2023-03-06T11:24:28.532Z,11.52
2023-03-06T11:26:39.319Z,11.65
2023-03-06T11:28:46.011Z,11.80
2023-03-06T11:30:51.285Z,12.23
2023-03-06T11:32:57.812Z,12.10
2023-03-06T11:35:03.624Z,12.30
2023-03-06T11:37:11.490Z,12.40
2023-03-06T11:39:20.770Z,12.10
2023-03-06T11:41:33.268Z,11.57
2023-03-06T11:43:40.802Z,12.13
2023-03-06T11:45:46.251Z,12.00
2023-03-06T11:47:51.787Z,12.35
2023-03-06T11:50:05.585Z,11.88
2023-03-06T11:52:16.244Z,13.10
2023-03-06T11:54:19.658Z,12.45
2023-03-06T11:56:34.238Z,12.05
2023-03-06T11:58:44.236Z,12.30
2023-03-06T12:00:51.538Z,12.20
2023-03-06T12:03:14.077Z,12.25
2023-03-06T12:05:31.837Z,11.32
2023-03-06T12:07:37.359Z,13.00
2023-03-06T12:09:47.409Z,12.63
2023-03-06T12:12:02.827Z,13.20
2023-03-06T12:14:21.738Z,14.63
2023-03-06T12:16:39.222Z,13.63
2023-03-06T12:18:50.245Z,11.55
2023-03-06T12:21:01.334Z,11.40
2023-03-06T12:23:15.508Z,11.05
2023-03-06T12:25:34.392Z,13.25
2023-03-06T12:27:43.920Z,10.95
2023-03-06T12:29:58.468Z,10.68
2023-03-06T12:32:09.449Z,11.70
2023-03-06T12:34:23.839Z,10.55
2023-03-06T12:36:34.488Z,11.30
2023-03-06T12:38:54.578Z,10.73
2023-03-06T12:41:08.442Z,10.13
2023-03-06T12:43:32.305Z,11.35
2023-03-06T12:45:37.028Z,10.90
2023-03-06T12:47:43.833Z,11.32
2023-03-06T12:49:52.893Z,10.43
2023-03-06T12:51:57.496Z,11.00
2023-03-06T12:54:01.819Z,10.73
2023-03-06T12:56:05.461Z,10.90
2023-03-06T12:58:42.622Z,10.60
2023-03-06T13:01:04.745Z,11.68
2023-03-06T13:03:17.454Z,10.68
2023-03-06T13:05:43.367Z,15.07
2023-03-06T13:07:55.591Z,10.60
2023-03-06T13:10:17.153Z,10.80
2023-03-06T13:12:29.410Z,10.57
2023-03-06T13:14:54.816Z,13.30
2023-03-06T13:17:27.779Z,12.07
2023-03-06T13:19:31.052Z,11.57
2023-03-06T13:22:03.092Z,15.18
2023-03-06T13:24:07.316Z,11.15
2023-03-06T13:26:11.999Z,11.75
2023-03-06T13:28:26.874Z,10.77
2023-03-06T13:30:46.040Z,10.60
2023-03-06T13:32:51.549Z,10.90
2023-03-06T13:34:54.663Z,11.35
2023-03-06T13:37:53.429Z,12.25
2023-03-06T13:40:14.800Z,10.00
2023-03-06T13:42:27.117Z,11.00
2023-03-06T13:44:50.846Z,10.00
2023-03-06T13:47:00.373Z,9.73
2023-03-06T13:49:12.877Z,9.05
2023-03-06T13:51:23.164Z,9.60
2023-03-06T13:54:04.416Z,10.23
2023-03-06T13:56:25.582Z,10.15
2023-03-06T13:58:40.065Z,9.80
2023-03-06T14:01:03.352Z,10.15
2023-03-06T14:03:53.976Z,10.48
2023-03-06T14:05:58.984Z,8.80
2023-03-06T14:08:07.756Z,10.05
2023-03-06T14:10:20.258Z,9.68
2023-03-06T14:12:25.150Z,10.00
2023-03-06T14:14:34.910Z,10.40
2023-03-06T14:16:49.794Z,10.20
2023-03-06T14:18:54.927Z,9.93
2023-03-06T14:21:01.775Z,10.90
2023-03-06T14:23:23.463Z,9.60
2023-03-06T14:25:29.694Z,10.00
2023-03-06T14:27:43.834Z,10.65
2023-03-06T14:29:48.726Z,11.00
2023-03-06T14:31:53.068Z,10.95
2023-03-06T14:33:57.464Z,10.23
2023-03-06T14:36:04.371Z,9.82
2023-03-06T14:38:08.136Z,10.40
2023-03-06T14:40:13.879Z,11.00
2023-03-06T14:42:18.744Z,10.07
2023-03-06T14:44:23.110Z,11.77
2023-03-06T14:46:26.271Z,11.25
2023-03-06T14:48:40.149Z,11.00
2023-03-06T14:50:48.607Z,9.90
2023-03-06T14:52:55.669Z,9.85
2023-03-06T14:54:58.887Z,10.75
2023-03-06T14:57:05.930Z,9.57
2023-03-06T14:59:12.441Z,10.30
2023-03-06T15:01:16.260Z,10.48
2023-03-06T15:03:23.952Z,10.27
2023-03-06T15:05:28.486Z,10.48
2023-03-06T15:07:32.453Z,9.63
2023-03-06T15:09:38.619Z,10.80
2023-03-06T15:11:59.915Z,11.40
2023-03-06T15:14:04.039Z,9.15
2023-03-06T15:16:09.175Z,8.60
2023-03-06T15:18:29.897Z,9.52
2023-03-06T15:20:54.216Z,11.23
2023-03-06T15:22:57.502Z,8.93
2023-03-06T15:25:27.568Z,9.57
2023-03-06T15:27:31.905Z,9.35
2023-03-06T15:29:35.901Z,8.73
2023-03-06T15:31:39.734Z,8.43
2023-03-06T15:33:42.933Z,12.70
2023-03-06T15:35:55.051Z,8.95
2023-03-06T15:37:58.888Z,9.00
2023-03-06T15:40:09.334Z,10.55
2023-03-06T15:42:20.291Z,9.60
2023-03-06T15:44:23.422Z,9.18
2023-03-06T15:46:26.846Z,7.50
2023-03-06T15:48:30.113Z,9.60
2023-03-06T15:50:33.265Z,9.80
2023-03-06T15:52:36.470Z,8.65
2023-03-06T15:54:39.611Z,9.93
2023-03-06T15:56:44.680Z,8.95
2023-03-06T15:58:49.373Z,9.60
2023-03-06T16:00:52.729Z,9.48
2023-03-06T16:02:56.348Z,9.27
2023-03-06T16:05:02.453Z,9.10
2023-03-06T16:07:05.874Z,8.77
2023-03-06T16:09:09.016Z,10.05
2023-03-06T16:11:20.314Z,10.73
2023-03-06T16:13:27.111Z,9.43
2023-03-06T16:15:33.409Z,9.18
2023-03-06T16:17:36.453Z,9.20
2023-03-06T16:19:39.757Z,9.63
2023-03-06T16:21:44.142Z,9.43
2023-03-06T16:23:47.248Z,10.32
2023-03-06T16:25:51.049Z,9.43
2023-03-06T16:27:59.114Z,9.85
2023-03-06T16:30:02.205Z,10.82
2023-03-06T16:32:07.868Z,10.38
2023-03-06T16:34:11.031Z,11.88
2023-03-06T16:36:15.886Z,11.50
2023-03-06T16:38:19.263Z,11.30
2023-03-06T16:40:24.456Z,12.98
2023-03-06T16:42:27.649Z,11.90
2023-03-06T16:44:30.812Z,14.32
2023-03-06T16:46:42.825Z,14.93
2023-03-06T16:48:47.435Z,15.60
2023-03-06T16:50:50.527Z,14.30
2023-03-06T16:52:55.511Z,14.00
2023-03-06T16:54:58.836Z,14.32
2023-03-06T16:57:02.371Z,14.60
2023-03-06T16:59:05.437Z,17.65
2023-03-06T17:01:09.922Z,16.73
2023-03-06T17:03:13.102Z,13.20
2023-03-06T17:05:17.887Z,14.55
2023-03-06T17:07:21.135Z,16.50
2023-03-06T17:09:24.265Z,15.18
2023-03-06T17:11:27.395Z,13.10
2023-03-06T17:13:30.644Z,12.20
2023-03-06T17:15:33.895Z,13.63
2023-03-06T17:17:37.307Z,14.45
2023-03-06T17:19:40.683Z,14.05
2023-03-06T17:21:45.294Z,12.88
2023-03-06T17:23:48.440Z,16.10
2023-03-06T17:25:51.564Z,14.07
2023-03-06T17:27:55.228Z,13.85
2023-03-06T17:29:58.726Z,12.90
2023-03-06T17:32:02.153Z,13.15
2023-03-06T17:34:05.314Z,13.90
2023-03-06T17:36:09.506Z,12.48
2023-03-06T17:38:14.162Z,13.15
2023-03-06T17:40:17.416Z,13.85
2023-03-06T17:42:20.508Z,13.10
2023-03-06T17:44:23.664Z,14.32
2023-03-06T17:46:27.198Z,13.30
2023-03-06T17:48:30.723Z,14.40
2023-03-06T17:50:34.295Z,12.43
2023-03-06T17:52:39.018Z,11.93
2023-03-06T17:54:43.977Z,12.30
2023-03-06T17:56:47.160Z,13.00
2023-03-06T17:58:50.351Z,14.13
2023-03-06T18:00:53.610Z,12.27
2023-03-06T18:02:56.622Z,12.35
2023-03-06T18:04:59.793Z,12.93
2023-03-06T18:07:02.919Z,11.50
2023-03-06T18:09:06.724Z,13.88
2023-03-06T18:11:12.121Z,12.70
2023-03-06T18:13:15.290Z,11.00
2023-03-06T18:15:18.689Z,11.50
2023-03-06T18:17:21.931Z,11.43
2023-03-06T18:19:25.529Z,11.55
2023-03-06T18:21:30.331Z,11.55
2023-03-06T18:23:33.701Z,11.32
2023-03-06T18:25:36.922Z,11.00
2023-03-06T18:27:41.633Z,11.60
2023-03-06T18:29:44.801Z,12.50
2023-03-06T18:31:50.047Z,10.98
2023-03-06T18:33:55.065Z,12.77
2023-03-06T18:35:58.257Z,11.40
2023-03-06T18:38:01.808Z,12.45
2023-03-06T18:40:05.449Z,11.68
2023-03-06T18:42:09.157Z,11.05
2023-03-06T18:44:15.126Z,12.23
2023-03-06T18:46:18.313Z,12.38
2023-03-06T18:48:21.637Z,11.38
2023-03-06T18:50:24.811Z,11.43
2023-03-06T18:52:31.088Z,11.70
2023-03-06T18:54:34.270Z,11.60
2023-03-06T18:56:39.396Z,13.50
2023-03-06T18:58:42.677Z,10.32
2023-03-06T19:00:47.580Z,11.40
2023-03-06T19:02:50.816Z,10.73
2023-03-06T19:04:54.598Z,11.18
2023-03-06T19:06:57.822Z,11.63
2023-03-06T19:09:02.201Z,10.85
2023-03-06T19:11:07.169Z,10.35
2023-03-06T19:13:11.577Z,11.35
2023-03-06T19:15:14.866Z,10.80
2023-03-06T19:17:19.360Z,11.43
2023-03-06T19:19:26.172Z,11.43
2023-03-06T19:21:29.607Z,11.45
2023-03-06T19:23:32.899Z,11.88
2023-03-06T19:25:36.346Z,11.60
2023-03-06T19:27:39.436Z,10.63
2023-03-06T19:29:43.078Z,11.45
2023-03-06T19:31:46.411Z,12.27
2023-03-06T19:33:52.976Z,11.63
2023-03-06T19:35:56.205Z,10.40
2023-03-06T19:37:59.424Z,11.48
2023-03-06T19:40:03.775Z,11.93
2023-03-06T19:42:07.388Z,11.73
2023-03-06T19:44:12.247Z,12.80
2023-03-06T19:46:16.097Z,11.63
2023-03-06T19:48:21.176Z,12.18
2023-03-06T19:50:29.587Z,11.98
2023-03-06T19:52:33.110Z,11.70
2023-03-06T19:54:37.368Z,11.90
2023-03-06T19:56:41.049Z,11.75
2023-03-06T19:58:44.680Z,11.25
2023-03-06T20:00:48.003Z,11.95
2023-03-06T20:02:51.456Z,11.35
2023-03-06T20:04:56.536Z,12.30
2023-03-06T20:07:01.165Z,10.70
2023-03-06T20:09:06.785Z,12.20
2023-03-06T20:11:16.947Z,10.85
2023-03-06T20:13:20.198Z,11.13
2023-03-06T20:15:23.460Z,11.20
2023-03-06T20:17:26.768Z,10.98
2023-03-06T20:19:30.119Z,11.07
2023-03-06T20:21:35.485Z,11.15
2023-03-06T20:23:39.969Z,11.57
2023-03-06T20:25:43.401Z,11.10
2023-03-06T20:27:46.622Z,11.57
2023-03-06T20:29:49.709Z,11.70
2023-03-06T20:31:54.561Z,11.27
2023-03-06T20:33:59.226Z,10.25
2023-03-06T20:36:02.722Z,11.40
2023-03-06T20:38:08.046Z,11.40
2023-03-06T20:40:13.892Z,11.70
2023-03-06T20:42:17.734Z,12.02
2023-03-06T20:44:23.135Z,11.27
2023-03-06T20:46:26.522Z,12.38
2023-03-06T20:48:30.002Z,13.07
2023-03-06T20:50:33.094Z,12.30
2023-03-06T20:52:36.342Z,11.75
2023-03-06T20:54:42.480Z,12.05
2023-03-06T20:56:49.008Z,11.32
2023-03-06T20:58:52.327Z,13.80
2023-03-06T21:00:55.453Z,14.95
2023-03-06T21:02:58.774Z,14.32
2023-03-06T21:05:02.769Z,13.52
2023-03-06T21:07:06.051Z,11.70
2023-03-06T21:09:09.253Z,12.07
2023-03-06T21:11:12.557Z,12.30
2023-03-06T21:13:17.576Z,11.15
2023-03-06T21:15:21.119Z,10.85
2023-03-06T21:17:25.453Z,11.77
2023-03-06T21:19:28.590Z,11.82
2023-03-06T21:21:33.510Z,11.45
2023-03-06T21:23:36.743Z,12.15
2023-03-06T21:25:48.680Z,10.88
2023-03-06T21:27:51.976Z,11.50
2023-03-06T21:29:56.464Z,10.70
2023-03-06T21:31:59.876Z,11.98
2023-03-06T21:34:05.031Z,11.88
2023-03-06T21:36:09.307Z,12.27
2023-03-06T21:38:12.445Z,11.70
2023-03-06T21:40:15.782Z,12.90
2023-03-06T21:42:18.811Z,12.40
2023-03-06T21:44:22.129Z,11.70
2023-03-06T21:46:27.078Z,11.93
2023-03-06T21:48:30.309Z,12.02
2023-03-06T21:50:33.391Z,11.30
2023-03-06T21:52:36.719Z,12.52
2023-03-06T21:54:39.992Z,11.73
2023-03-06T21:56:43.122Z,12.18
2023-03-06T21:58:46.563Z,12.80
2023-03-06T22:00:49.688Z,11.40
2023-03-06T22:02:54.281Z,10.23
2023-03-06T22:04:57.472Z,11.48
2023-03-06T22:07:00.574Z,11.30
2023-03-06T22:09:04.369Z,10.90
2023-03-06T22:11:09.799Z,10.68
2023-03-06T22:13:13.179Z,10.73
2023-03-06T22:15:16.459Z,10.90
2023-03-06T22:17:19.534Z,10.32
2023-03-06T22:19:24.285Z,11.25
2023-03-06T22:21:27.507Z,11.20
2023-03-06T22:23:30.642Z,10.40
2023-03-06T22:25:35.394Z,11.32
2023-03-06T22:27:38.549Z,10.20
2023-03-06T22:29:41.626Z,10.57
2023-03-06T22:31:44.860Z,10.20
2023-03-06T22:33:48.273Z,11.00
2023-03-06T22:35:55.296Z,9.95
2023-03-06T22:37:58.663Z,10.13
2023-03-06T22:40:01.930Z,10.20
2023-03-06T22:42:07.049Z,10.15
2023-03-06T22:44:16.527Z,10.27
2023-03-06T22:46:19.762Z,10.13
2023-03-06T22:48:23.178Z,10.07
2023-03-06T22:50:26.210Z,9.40
2023-03-06T22:52:31.074Z,10.15
2023-03-06T22:54:34.154Z,9.65
2023-03-06T22:56:37.566Z,9.13
2023-03-06T22:58:40.857Z,10.13
2023-03-06T23:00:43.984Z,9.75
2023-03-06T23:02:47.108Z,10.13
2023-03-06T23:04:52.347Z,10.32
2023-03-06T23:06:55.476Z,10.23
2023-03-06T23:09:01.432Z,12.10
2023-03-06T23:11:09.087Z,11.07
2023-03-06T23:13:31.007Z,10.70
2023-03-06T23:15:53.183Z,11.68
2023-03-06T23:18:18.034Z,10.57
2023-03-06T23:20:42.914Z,9.68
2023-03-06T23:23:04.974Z,10.93
2023-03-06T23:25:18.918Z,10.60
2023-03-06T23:27:21.979Z,10.73
2023-03-06T23:29:25.353Z,10.70
2023-03-06T23:31:30.514Z,11.25
2023-03-06T23:33:33.648Z,11.25
2023-03-06T23:35:37.761Z,11.30
2023-03-06T23:37:40.846Z,10.35
2023-03-06T23:39:43.926Z,10.85
2023-03-06T23:41:48.697Z,10.73
2023-03-06T23:43:54.653Z,11.05
2023-03-06T23:45:58.629Z,11.18
2023-03-06T23:48:01.794Z,11.13
2023-03-06T23:50:05.181Z,10.70
2023-03-06T23:52:08.386Z,11.23
2023-03-06T23:54:11.617Z,10.60
2023-03-06T23:56:14.726Z,10.77
2023-03-06T23:58:19.891Z,11.00
